createdAt,value
2018-10-04T00:00:19.651Z,77
2018-10-04T00:00:50.282Z,76.9
2018-10-04T00:01:20.723Z,76.9
2018-10-04T00:01:51.251Z,76.8
2018-10-04T00:02:21.781Z,76.8
2018-10-04T00:03:45.766Z,76.7
2018-10-04T00:04:45.094Z,76.8
2018-10-04T00:05:44.096Z,76.8
2018-10-04T00:06:43.214Z,76.9
2018-10-04T00:07:42.650Z,76.8
2018-10-04T00:08:41.472Z,76.8
2018-10-04T00:09:40.695Z,76.8
2018-10-04T00:10:40.015Z,76.8
2018-10-04T00:11:10.338Z,76.8
2018-10-04T00:11:40.872Z,76.7
2018-10-04T00:12:11.522Z,76.7
2018-10-04T00:13:36.904Z,76.7
2018-10-04T00:14:36.400Z,76.9
2018-10-04T00:15:35.617Z,77
2018-10-04T00:16:34.836Z,76.9
2018-10-04T00:17:33.833Z,77.1
2018-10-04T00:18:33.147Z,77
2018-10-04T00:19:31.854Z,77.2
2018-10-04T00:20:31.173Z,77.4
2018-10-04T00:21:30.384Z,77.2
2018-10-04T00:22:29.705Z,77.2
2018-10-04T00:23:28.308Z,77.2
2018-10-04T00:24:27.524Z,77.2
2018-10-04T00:25:26.954Z,77.2
2018-10-04T00:26:25.806Z,77.1
2018-10-04T00:27:25.224Z,77.1
2018-10-04T00:28:24.160Z,77.2
2018-10-04T00:29:23.396Z,77.1
2018-10-04T00:30:22.738Z,77
2018-10-04T00:31:21.558Z,76.9
2018-10-04T00:32:20.875Z,77
2018-10-04T00:33:20.197Z,76.9
2018-10-04T00:35:17.901Z,76.6
2018-10-04T00:36:17.105Z,76.7
2018-10-04T00:37:16.423Z,76.6
2018-10-04T00:38:15.529Z,76.6
2018-10-04T00:39:14.742Z,76.8
2018-10-04T00:40:14.063Z,76.5
2018-10-04T00:41:12.995Z,76.7
2018-10-04T00:42:12.318Z,76.9
2018-10-04T00:43:11.134Z,76.7
2018-10-04T00:44:10.449Z,76.7
2018-10-04T00:45:09.576Z,76.9
2018-10-04T00:46:08.572Z,77
2018-10-04T00:47:07.787Z,77
2018-10-04T00:48:07.105Z,77
2018-10-04T00:49:05.916Z,77
2018-10-04T00:50:05.122Z,76.9
2018-10-04T00:51:04.495Z,77.4
2018-10-04T00:52:03.199Z,77.2
2018-10-04T00:53:02.414Z,77.3
2018-10-04T00:54:01.734Z,77.3
2018-10-04T00:55:00.956Z,77.3
2018-10-04T00:55:59.785Z,77.2
2018-10-04T00:56:58.999Z,77.2
2018-10-04T00:57:29.740Z,77.2
2018-10-04T00:58:00.373Z,77.2
2018-10-04T00:58:31.001Z,77.2
2018-10-04T00:59:56.385Z,77.7
2018-10-04T01:00:55.595Z,77.8
2018-10-04T01:01:54.704Z,77.8
2018-10-04T01:02:54.030Z,77.9
2018-10-04T01:03:52.738Z,77.9
2018-10-04T01:04:51.846Z,78.3
2018-10-04T01:05:51.052Z,78.1
2018-10-04T01:06:50.151Z,78.2
2018-10-04T01:07:20.916Z,78.2
2018-10-04T01:07:51.160Z,78.3
2018-10-04T01:08:21.802Z,78.3
2018-10-04T01:08:52.434Z,78.4
2018-10-04T01:09:22.962Z,78.4
2018-10-04T01:10:46.730Z,78.5
2018-10-04T01:11:46.052Z,78.6
2018-10-04T01:12:44.974Z,78.8
2018-10-04T01:13:44.416Z,78.8
2018-10-04T01:14:43.237Z,79
2018-10-04T01:15:42.445Z,79.3
2018-10-04T01:16:41.759Z,79.1
2018-10-04T01:17:40.577Z,79.6
2018-10-04T01:18:40.000Z,79.4
2018-10-04T01:19:10.238Z,79.4
2018-10-04T01:19:40.369Z,79.7
2018-10-04T01:20:10.967Z,79.7
2018-10-04T01:20:41.604Z,79.6
2018-10-04T01:21:37.406Z,79.8
2018-10-04T01:22:36.222Z,79.9
2018-10-04T01:23:35.652Z,80.3
2018-10-04T01:24:34.476Z,80.4
2018-10-04T01:25:33.795Z,80.4
2018-10-04T01:26:32.716Z,80.4
2018-10-04T01:27:32.032Z,80.5
2018-10-04T01:28:31.238Z,81
2018-10-04T01:29:30.056Z,80.7
2018-10-04T01:30:29.362Z,80.4
2018-10-04T01:31:28.437Z,80.3
2018-10-04T01:32:27.529Z,80.3
2018-10-04T01:33:26.738Z,80.4
2018-10-04T01:34:25.850Z,80.4
2018-10-04T01:35:25.066Z,80.2
2018-10-04T01:36:23.777Z,80.3
2018-10-04T01:36:54.311Z,80.3
2018-10-04T01:37:24.948Z,80.3
2018-10-04T01:37:55.589Z,80.3
2018-10-04T01:38:26.224Z,80.3
2018-10-04T01:38:56.746Z,80.3
2018-10-04T01:40:20.226Z,80
2018-10-04T01:41:19.561Z,79.9
2018-10-04T01:42:18.479Z,79.8
2018-10-04T01:43:17.692Z,79.8
2018-10-04T01:44:17.127Z,79.6
2018-10-04T01:45:15.824Z,79.6
2018-10-04T01:46:15.032Z,79.4
2018-10-04T01:46:45.667Z,79.4
2018-10-04T01:47:16.181Z,79.3
2018-10-04T01:47:46.816Z,79.3
2018-10-04T01:48:17.051Z,79.5
2018-10-04T01:48:47.678Z,79.5
2018-10-04T01:49:17.912Z,79
2018-10-04T01:49:48.042Z,79
2018-10-04T01:50:18.778Z,78.9
2018-10-04T01:50:49.303Z,78.9
2018-10-04T01:52:09.761Z,78.5
2018-10-04T01:53:08.975Z,78.4
2018-10-04T01:54:07.903Z,78.5
2018-10-04T01:55:07.116Z,78.6
2018-10-04T01:56:06.434Z,78.7
2018-10-04T01:57:05.354Z,78.6
2018-10-04T01:58:04.171Z,78.7
2018-10-04T01:59:03.486Z,78.9
2018-10-04T02:00:02.926Z,79.1
2018-10-04T02:00:33.577Z,79.1
2018-10-04T02:01:03.821Z,79.1
2018-10-04T02:01:34.450Z,79.1
2018-10-04T02:02:04.973Z,79.1
2018-10-04T02:03:00.267Z,79
2018-10-04T02:04:58.465Z,79.1
2018-10-04T02:05:57.563Z,79.2
2018-10-04T02:07:22.044Z,79.2
2018-10-04T02:07:55.476Z,79.3
2018-10-04T02:08:54.904Z,79.2
2018-10-04T02:09:53.824Z,79.3
2018-10-04T02:10:53.032Z,79.5
2018-10-04T02:11:52.137Z,79.4
2018-10-04T02:12:51.024Z,79.5
2018-10-04T02:13:50.230Z,79.4
2018-10-04T02:14:49.444Z,79.3
2018-10-04T02:15:48.390Z,79.5
2018-10-04T02:16:47.501Z,79.4
2018-10-04T02:17:46.815Z,79.4
2018-10-04T02:18:46.139Z,79.4
2018-10-04T02:19:16.555Z,79.4
2018-10-04T02:19:47.083Z,79.5
2018-10-04T02:20:17.711Z,79.5
2018-10-04T02:21:43.223Z,79.7
2018-10-04T02:22:42.145Z,79.8
2018-10-04T02:23:41.490Z,79.9
2018-10-04T02:24:40.320Z,80.1
2018-10-04T02:25:39.542Z,80.4
2018-10-04T02:26:38.968Z,80.1
2018-10-04T02:27:37.578Z,79.9
2018-10-04T02:28:37.102Z,79.9
2018-10-04T02:29:35.927Z,79.8
2018-10-04T02:30:06.447Z,79.8
2018-10-04T02:30:36.875Z,79.8
2018-10-04T02:31:07.312Z,79.8
2018-10-04T02:31:37.947Z,79.8
2018-10-04T02:32:33.253Z,79.8
2018-10-04T02:34:31.564Z,79.7
2018-10-04T02:35:30.879Z,80.2
2018-10-04T02:36:29.729Z,79.9
2018-10-04T02:37:29.047Z,80
2018-10-04T02:38:28.149Z,80
2018-10-04T02:39:26.978Z,80
2018-10-04T02:40:26.419Z,80.2
2018-10-04T02:41:25.250Z,80.2
2018-10-04T02:42:24.577Z,80.4
2018-10-04T02:43:23.440Z,80.3
2018-10-04T02:44:22.657Z,80.5
2018-10-04T02:45:21.874Z,80.4
2018-10-04T02:46:21.089Z,80.5
2018-10-04T02:47:19.797Z,80.6
2018-10-04T02:48:19.059Z,80.8
2018-10-04T02:49:18.178Z,80.7
2018-10-04T02:50:17.614Z,80.8
2018-10-04T02:51:16.433Z,80.8
2018-10-04T02:52:15.665Z,80.9
2018-10-04T02:53:14.594Z,80.9
2018-10-04T02:54:13.931Z,81.1
2018-10-04T02:55:13.034Z,81
2018-10-04T02:55:43.562Z,81
2018-10-04T02:56:13.989Z,80.9
2018-10-04T02:57:11.296Z,80.8
2018-10-04T02:58:10.021Z,80.9
2018-10-04T02:59:09.228Z,80.9
2018-10-04T03:00:08.447Z,81
2018-10-04T03:01:07.288Z,80.9
2018-10-04T03:02:06.615Z,81.1
2018-10-04T03:03:05.853Z,81.1
2018-10-04T03:04:05.065Z,81.1
2018-10-04T03:05:03.663Z,81.1
2018-10-04T03:06:02.982Z,81.2
2018-10-04T03:07:01.920Z,81.2
2018-10-04T03:08:01.048Z,81
2018-10-04T03:09:00.370Z,80.9
2018-10-04T03:09:59.536Z,81
2018-10-04T03:10:58.754Z,81.2
2018-10-04T03:11:57.466Z,81.2
2018-10-04T03:12:56.682Z,81.3
2018-10-04T03:13:55.815Z,81.2
2018-10-04T03:14:55.142Z,81.3
2018-10-04T03:15:54.057Z,81.1
2018-10-04T03:16:53.261Z,81
2018-10-04T03:17:52.372Z,81.1
2018-10-04T03:18:51.305Z,81.3
2018-10-04T03:19:50.731Z,81.2
2018-10-04T03:20:49.575Z,81.1
2018-10-04T03:21:48.801Z,81
2018-10-04T03:22:48.024Z,81
2018-10-04T03:23:46.832Z,80.9
2018-10-04T03:24:46.146Z,81
2018-10-04T03:25:16.413Z,81
2018-10-04T03:25:46.658Z,81
2018-10-04T03:26:17.298Z,81
2018-10-04T03:26:47.818Z,81.1
2018-10-04T03:27:18.341Z,81.1
2018-10-04T03:28:42.459Z,81.1
2018-10-04T03:29:41.384Z,81.2
2018-10-04T03:30:40.713Z,81
2018-10-04T03:31:39.636Z,80.9
2018-10-04T03:32:39.064Z,80.9
2018-10-04T03:33:37.892Z,80.8
2018-10-04T03:34:36.717Z,80.9
2018-10-04T03:35:07.464Z,80.9
2018-10-04T03:35:37.726Z,81.1
2018-10-04T03:36:07.858Z,81.1
2018-10-04T03:36:38.383Z,81.2
2018-10-04T03:37:08.923Z,81.2
2018-10-04T03:37:39.182Z,81
2018-10-04T03:38:09.806Z,81
2018-10-04T03:39:32.673Z,80.8
2018-10-04T03:40:31.482Z,80.8
2018-10-04T03:41:30.904Z,80.8
2018-10-04T03:42:29.713Z,80.9
2018-10-04T03:43:28.927Z,80.9
2018-10-04T03:44:28.561Z,80.8
2018-10-04T03:45:27.280Z,80.9
2018-10-04T03:46:26.496Z,80.8
2018-10-04T03:47:25.313Z,80.7
2018-10-04T03:48:24.249Z,80.7
2018-10-04T03:48:54.384Z,80.7
2018-10-04T03:49:25.148Z,80.8
2018-10-04T03:50:22.751Z,80.8
2018-10-04T03:51:21.565Z,80.7
2018-10-04T03:52:20.889Z,80.7
2018-10-04T03:53:20.217Z,80.6
2018-10-04T03:54:18.933Z,80.9
2018-10-04T03:54:49.569Z,80.9
2018-10-04T03:56:17.374Z,80.8
2018-10-04T03:57:16.190Z,80.8
2018-10-04T03:58:15.413Z,81.1
2018-10-04T03:59:14.744Z,80.9
2018-10-04T04:00:13.463Z,80.8
2018-10-04T04:01:12.886Z,80.8
2018-10-04T04:02:11.704Z,81
2018-10-04T04:03:11.032Z,81
2018-10-04T04:04:10.631Z,80.9
2018-10-04T04:05:09.090Z,81.1
2018-10-04T04:05:39.619Z,81.1
2018-10-04T04:06:10.368Z,81.1
2018-10-04T04:06:41.014Z,81.1
2018-10-04T04:07:11.645Z,81.2
2018-10-04T04:07:42.196Z,81.2
2018-10-04T04:08:12.964Z,81.3
2018-10-04T04:08:43.604Z,81.3
2018-10-04T04:10:04.968Z,81.4
2018-10-04T04:11:04.079Z,81.3
2018-10-04T04:12:03.004Z,81.3
2018-10-04T04:13:01.931Z,81.6
2018-10-04T04:14:01.358Z,81.4
2018-10-04T04:15:00.066Z,81.5
2018-10-04T04:15:30.301Z,81.5
2018-10-04T04:16:00.950Z,81.5
2018-10-04T04:16:31.478Z,81.5
2018-10-04T04:17:01.894Z,81.6
2018-10-04T04:17:32.525Z,81.6
2018-10-04T04:18:03.053Z,81.8
2018-10-04T04:18:33.182Z,81.8
2018-10-04T04:19:55.791Z,81.8
2018-10-04T04:20:54.603Z,81.9
2018-10-04T04:21:53.927Z,82
2018-10-04T04:22:53.133Z,81.9
2018-10-04T04:23:51.949Z,82
2018-10-04T04:24:51.063Z,81.9
2018-10-04T04:25:50.455Z,82.4
2018-10-04T04:26:49.278Z,82.8
2018-10-04T04:27:48.712Z,83.1
2018-10-04T04:28:47.424Z,83.2
2018-10-04T04:29:46.650Z,83.2
2018-10-04T04:30:46.259Z,83.3
2018-10-04T04:31:44.631Z,83.7
2018-10-04T04:32:43.776Z,83.5
2018-10-04T04:33:42.882Z,83.5
2018-10-04T04:34:42.395Z,83.5
2018-10-04T04:35:41.319Z,83.8
2018-10-04T04:36:40.270Z,83.8
2018-10-04T04:37:39.583Z,83.7
2018-10-04T04:38:38.520Z,84.4
2018-10-04T04:39:37.739Z,84.3
2018-10-04T04:40:36.591Z,84.8
2018-10-04T04:41:35.891Z,84.8
2018-10-04T04:42:35.010Z,85.1
2018-10-04T04:43:33.829Z,85
2018-10-04T04:44:32.933Z,85.1
2018-10-04T04:45:32.150Z,85.2
2018-10-04T04:46:31.406Z,85.6
2018-10-04T04:47:30.123Z,85.6
2018-10-04T04:48:00.543Z,85.6
2018-10-04T04:48:31.076Z,85.6
2018-10-04T04:49:01.650Z,85.6
2018-10-04T04:50:27.930Z,85.7
2018-10-04T04:51:26.652Z,85.8
2018-10-04T04:53:24.963Z,86
2018-10-04T04:54:24.276Z,85.8
2018-10-04T04:55:23.255Z,85.8
2018-10-04T04:56:22.176Z,85.8
2018-10-04T04:57:21.498Z,85.8
2018-10-04T04:58:20.211Z,86
2018-10-04T04:59:19.426Z,86
2018-10-04T05:00:18.844Z,86.1
2018-10-04T05:01:17.442Z,86
2018-10-04T05:02:16.761Z,85.8
2018-10-04T05:03:15.879Z,85.6
2018-10-04T05:04:14.989Z,85.3
2018-10-04T05:05:14.198Z,85.5
2018-10-04T05:06:12.955Z,85.3
2018-10-04T05:07:12.389Z,85.4
2018-10-04T05:08:11.609Z,85.3
2018-10-04T05:09:10.453Z,85.2
2018-10-04T05:10:09.782Z,85.1
2018-10-04T05:11:08.507Z,85
2018-10-04T05:12:07.821Z,85
2018-10-04T05:13:07.036Z,85.2
2018-10-04T05:13:37.458Z,85.2
2018-10-04T05:14:08.087Z,85.2
2018-10-04T05:14:38.724Z,85.2
2018-10-04T05:15:09.250Z,85.1
2018-10-04T05:16:04.359Z,85
2018-10-04T05:17:03.498Z,85.1
2018-10-04T05:18:02.423Z,85
2018-10-04T05:19:01.351Z,84.8
2018-10-04T05:20:00.462Z,84.9
2018-10-04T05:20:59.894Z,84.6
2018-10-04T05:21:58.717Z,84.6
2018-10-04T05:22:58.046Z,84.7
2018-10-04T05:23:28.363Z,84.7
2018-10-04T05:23:58.998Z,84.5
2018-10-04T05:24:29.522Z,84.5
2018-10-04T05:25:00.148Z,84.3
2018-10-04T05:25:30.777Z,84.3
2018-10-04T05:26:00.905Z,84.4
2018-10-04T05:26:54.295Z,84.3
2018-10-04T05:27:53.516Z,84.3
2018-10-04T05:28:52.351Z,84.2
2018-10-04T05:29:51.571Z,84.2
2018-10-04T05:30:50.896Z,84.1
2018-10-04T05:31:49.608Z,83.9
2018-10-04T05:32:49.042Z,83.9
2018-10-04T05:33:47.861Z,83.9
2018-10-04T05:35:46.175Z,83.4
2018-10-04T05:36:45.027Z,83.3
2018-10-04T05:37:44.253Z,83.2
2018-10-04T05:38:43.577Z,83.2
2018-10-04T05:39:42.394Z,83.1
2018-10-04T05:40:41.718Z,82.9
2018-10-04T05:41:40.927Z,83
2018-10-04T05:42:39.631Z,83.2
2018-10-04T05:43:10.256Z,83.2
2018-10-04T05:43:40.794Z,83.1
2018-10-04T05:44:38.208Z,83
2018-10-04T05:45:37.029Z,83
2018-10-04T05:46:36.240Z,83
2018-10-04T05:47:35.346Z,83
2018-10-04T05:48:34.186Z,83
2018-10-04T05:49:33.396Z,83
2018-10-04T05:50:32.606Z,82.8
2018-10-04T05:51:31.825Z,82.6
2018-10-04T05:52:31.031Z,82.6
2018-10-04T05:53:01.832Z,82.6
2018-10-04T05:53:32.389Z,82.6
2018-10-04T05:54:02.543Z,82.6
2018-10-04T05:54:33.170Z,82.6
2018-10-04T05:55:03.414Z,82.6
2018-10-04T05:55:33.647Z,82.5
2018-10-04T05:56:03.784Z,82.5
2018-10-04T05:57:26.252Z,82.6
2018-10-04T05:58:25.463Z,82.6
2018-10-04T05:59:24.975Z,82.7
2018-10-04T06:00:23.662Z,82.7
2018-10-04T06:01:22.989Z,82.6
2018-10-04T06:02:21.705Z,82.6
2018-10-04T06:03:21.135Z,82.6
2018-10-04T06:03:51.761Z,82.6
2018-10-04T06:04:22.000Z,82.7
2018-10-04T06:04:52.220Z,82.7
2018-10-04T06:05:22.961Z,82.2
2018-10-04T06:05:53.287Z,82.2
2018-10-04T06:06:23.514Z,82.2
2018-10-04T06:06:53.752Z,82.2
2018-10-04T06:08:16.333Z,81.8
2018-10-04T06:09:15.756Z,81.8
2018-10-04T06:09:45.983Z,81.8
2018-10-04T06:10:16.216Z,81.8
2018-10-04T06:11:13.918Z,81.7
2018-10-04T06:12:13.132Z,81.5
2018-10-04T06:13:11.852Z,81.4
2018-10-04T06:14:11.079Z,81.5
2018-10-04T06:16:09.186Z,81.2
2018-10-04T06:16:39.708Z,81.2
2018-10-04T06:17:10.347Z,81
2018-10-04T06:18:07.546Z,81
2018-10-04T06:19:06.487Z,81
2018-10-04T06:20:05.922Z,80.7
2018-10-04T06:21:04.863Z,80.8
2018-10-04T06:22:04.335Z,80.7
2018-10-04T06:23:03.048Z,80.4
2018-10-04T06:23:33.285Z,80.4
2018-10-04T06:24:03.706Z,80.4
2018-10-04T06:25:01.522Z,80.3
2018-10-04T06:26:00.482Z,80.2
2018-10-04T06:26:59.834Z,80
2018-10-04T06:27:58.653Z,79.7
2018-10-04T06:28:57.472Z,79.4
2018-10-04T06:29:56.793Z,79.2
2018-10-04T06:30:56.117Z,79.1
2018-10-04T06:31:55.038Z,79.1
2018-10-04T06:32:54.284Z,79.1
2018-10-04T06:33:24.920Z,79.1
2018-10-04T06:33:55.552Z,79.1
2018-10-04T06:34:26.181Z,79.1
2018-10-04T06:34:56.618Z,78.8
2018-10-04T06:35:27.341Z,78.8
2018-10-04T06:35:57.540Z,78.5
2018-10-04T06:36:28.280Z,78.5
2018-10-04T06:37:49.535Z,78.1
2018-10-04T06:38:48.743Z,78
2018-10-04T06:39:48.060Z,77.9
2018-10-04T06:40:47.164Z,78
2018-10-04T06:41:46.430Z,77.8
2018-10-04T06:42:45.137Z,77.5
2018-10-04T06:43:44.355Z,77.3
2018-10-04T06:44:15.275Z,77.3
2018-10-04T06:44:45.247Z,77.3
2018-10-04T06:45:15.888Z,77.3
2018-10-04T06:45:46.086Z,77.3
2018-10-04T06:46:16.415Z,77.3
2018-10-04T06:47:40.898Z,77.1
2018-10-04T06:48:40.014Z,77.2
2018-10-04T06:49:39.431Z,77
2018-10-04T06:50:38.246Z,77
2018-10-04T06:51:37.491Z,77.1
2018-10-04T06:52:36.809Z,77.1
2018-10-04T06:53:35.737Z,77
2018-10-04T06:54:34.958Z,77.1
2018-10-04T06:55:33.719Z,77.1
2018-10-04T06:56:33.338Z,76.9
2018-10-04T06:57:32.155Z,76.8
2018-10-04T06:58:31.588Z,76.8
2018-10-04T06:59:30.405Z,77.1
2018-10-04T07:00:29.730Z,76.7
2018-10-04T07:01:28.543Z,76.9
2018-10-04T07:02:27.976Z,77.1
2018-10-04T07:03:26.902Z,77.3
2018-10-04T07:04:25.928Z,77.2
2018-10-04T07:05:25.255Z,77
2018-10-04T07:06:24.079Z,77.1
2018-10-04T07:07:23.295Z,77
2018-10-04T07:08:22.715Z,77
2018-10-04T07:09:21.924Z,77.2
2018-10-04T07:10:20.737Z,77.2
2018-10-04T07:11:20.076Z,77.3
2018-10-04T07:12:19.004Z,77.3
2018-10-04T07:13:18.229Z,77.3
2018-10-04T07:14:17.443Z,77
2018-10-04T07:15:16.647Z,77.1
2018-10-04T07:16:15.755Z,77.1
2018-10-04T07:17:14.471Z,76.9
2018-10-04T07:18:13.687Z,76.8
2018-10-04T07:19:12.809Z,76.7
2018-10-04T07:20:12.335Z,76
2018-10-04T07:21:11.257Z,76
2018-10-04T07:22:10.582Z,75.3
2018-10-04T07:23:09.505Z,75.1
2018-10-04T07:24:08.331Z,75.4
2018-10-04T07:25:07.816Z,75.1
2018-10-04T07:26:06.640Z,75.7
2018-10-04T07:27:06.069Z,74.7
2018-10-04T07:28:05.003Z,74.6
2018-10-04T07:29:04.315Z,74.1
2018-10-04T07:30:03.527Z,74.1
2018-10-04T07:31:02.304Z,74
2018-10-04T07:31:32.857Z,74
2018-10-04T07:32:03.141Z,74.2
2018-10-04T07:33:00.940Z,73.6
2018-10-04T07:34:00.280Z,73.4
2018-10-04T07:34:59.519Z,73.5
2018-10-04T07:35:58.219Z,73.9
2018-10-04T07:36:57.543Z,73.3
2018-10-04T07:37:56.649Z,73
2018-10-04T07:38:55.861Z,73.3
2018-10-04T07:39:54.679Z,73.5
2018-10-04T07:40:54.053Z,73.8
2018-10-04T07:41:24.685Z,73.8
2018-10-04T07:41:55.020Z,72.5
2018-10-04T07:42:25.568Z,72.5
2018-10-04T07:43:51.560Z,72.6
2018-10-04T07:44:50.378Z,72.3
2018-10-04T07:45:49.695Z,72.1
2018-10-04T07:46:48.905Z,71.8
2018-10-04T07:47:48.022Z,72
2018-10-04T07:48:47.238Z,71.7
2018-10-04T07:49:46.159Z,71.7
2018-10-04T07:50:45.373Z,71.3
2018-10-04T07:51:44.591Z,71.7
2018-10-04T07:52:15.012Z,71.7
2018-10-04T07:52:45.537Z,71.9
2018-10-04T07:53:15.960Z,71.9
2018-10-04T07:54:41.842Z,71.3
2018-10-04T07:55:41.059Z,71.7
2018-10-04T07:56:40.626Z,71.9
2018-10-04T07:57:39.351Z,71.8
2018-10-04T07:58:38.563Z,71.8
2018-10-04T07:59:37.691Z,71.6
2018-10-04T08:00:37.110Z,71.6
2018-10-04T08:01:36.332Z,71.8
2018-10-04T08:02:35.041Z,71.8
2018-10-04T08:03:34.544Z,72
2018-10-04T08:04:33.469Z,72.1
2018-10-04T08:05:32.789Z,72.1
2018-10-04T08:06:32.504Z,72
2018-10-04T08:07:31.302Z,71.6
2018-10-04T08:08:30.407Z,71.6
2018-10-04T08:09:29.507Z,71.4
2018-10-04T08:11:27.602Z,71.6
2018-10-04T08:11:58.130Z,71.6
2018-10-04T08:13:26.031Z,71.3
2018-10-04T08:14:25.452Z,71.7
2018-10-04T08:15:24.445Z,71.4
2018-10-04T08:16:24.449Z,71.6
2018-10-04T08:17:22.544Z,71.7
2018-10-04T08:18:21.864Z,71.6
2018-10-04T08:19:21.222Z,71.2
2018-10-04T08:20:20.141Z,71.4
2018-10-04T08:20:50.717Z,71.4
2018-10-04T08:21:20.917Z,71.5
2018-10-04T08:21:51.153Z,71.5
2018-10-04T08:22:21.581Z,70.7
2018-10-04T08:22:52.216Z,70.7
2018-10-04T08:23:22.466Z,71.2
2018-10-04T08:23:52.986Z,71.2
2018-10-04T08:24:23.624Z,71.3
2018-10-04T08:24:54.150Z,71.3
2018-10-04T08:26:15.112Z,71.1
2018-10-04T08:27:14.424Z,71.7
2018-10-04T08:28:13.748Z,71.1
2018-10-04T08:29:12.561Z,71
2018-10-04T08:30:11.777Z,71.1
2018-10-04T08:31:11.103Z,70.7
2018-10-04T08:32:10.314Z,70.9
2018-10-04T08:33:09.529Z,71.1
2018-10-04T08:33:40.237Z,71.1
2018-10-04T08:34:10.391Z,71.6
2018-10-04T08:34:40.816Z,71.6
2018-10-04T08:35:11.396Z,70.7
2018-10-04T08:35:41.414Z,70.7
2018-10-04T08:37:06.295Z,71
2018-10-04T08:38:05.227Z,70.8
2018-10-04T08:39:04.646Z,70.6
2018-10-04T08:40:03.468Z,70.9
2018-10-04T08:41:02.966Z,71.1
2018-10-04T08:42:02.147Z,70.5
2018-10-04T08:43:01.355Z,70.3
2018-10-04T08:44:00.567Z,70.2
2018-10-04T08:44:59.685Z,70.5
2018-10-04T08:45:58.543Z,70.5
2018-10-04T08:46:57.872Z,70.2
2018-10-04T08:47:56.982Z,70.4
2018-10-04T08:48:56.303Z,70.2
2018-10-04T08:49:55.238Z,70
2018-10-04T08:50:54.553Z,70
2018-10-04T08:51:53.927Z,70.4
2018-10-04T08:52:24.172Z,70.4
2018-10-04T08:52:54.588Z,69.9
2018-10-04T08:53:25.219Z,69.9
2018-10-04T08:54:51.007Z,70
2018-10-04T08:55:50.113Z,70
2018-10-04T08:56:49.836Z,70
2018-10-04T08:57:48.826Z,68.9
2018-10-04T08:58:48.147Z,69.1
2018-10-04T08:59:47.074Z,68.6
2018-10-04T09:00:46.503Z,68.8
2018-10-04T09:01:45.330Z,68.8
2018-10-04T09:02:44.786Z,68.9
2018-10-04T09:03:14.919Z,68.9
2018-10-04T09:03:45.451Z,69.2
2018-10-04T09:04:15.696Z,69.2
2018-10-04T09:04:45.820Z,69.1
2018-10-04T09:05:16.456Z,69.1
2018-10-04T09:06:41.441Z,69.3
2018-10-04T09:07:41.157Z,69.5
2018-10-04T09:08:39.747Z,69.4
2018-10-04T09:09:39.063Z,69.2
2018-10-04T09:10:37.982Z,68.5
2018-10-04T09:11:37.297Z,68.9
2018-10-04T09:12:36.508Z,69.1
2018-10-04T09:13:35.721Z,68.6
2018-10-04T09:14:34.828Z,68.4
2018-10-04T09:15:05.357Z,68.4
2018-10-04T09:15:35.979Z,68.6
2018-10-04T09:16:33.177Z,68.3
2018-10-04T09:17:32.498Z,68.5
2018-10-04T09:18:31.716Z,68.4
2018-10-04T09:19:30.943Z,68.2
2018-10-04T09:20:29.859Z,68.4
2018-10-04T09:21:29.077Z,68.5
2018-10-04T09:22:28.395Z,68.3
2018-10-04T09:23:27.504Z,68
2018-10-04T09:24:26.717Z,68.5
2018-10-04T09:25:25.837Z,68.4
2018-10-04T09:26:25.434Z,68.1
2018-10-04T09:27:24.305Z,68.3
2018-10-04T09:28:23.426Z,68.4
2018-10-04T09:29:22.639Z,68.3
2018-10-04T09:30:22.072Z,68.2
2018-10-04T09:31:20.891Z,66.8
2018-10-04T09:32:20.218Z,66.9
2018-10-04T09:33:19.319Z,67
2018-10-04T09:34:18.751Z,66.5
2018-10-04T09:35:18.072Z,67
2018-10-04T09:36:17.387Z,67
2018-10-04T09:37:16.213Z,67.3
2018-10-04T09:38:15.719Z,66.6
2018-10-04T09:39:14.941Z,66.6
2018-10-04T09:40:14.149Z,66.5
2018-10-04T09:41:13.217Z,66.8
2018-10-04T09:42:12.228Z,66.7
2018-10-04T09:43:11.828Z,66.9
2018-10-04T09:44:11.045Z,67.3
2018-10-04T09:45:09.983Z,66.4
2018-10-04T09:46:09.267Z,66.1
2018-10-04T09:47:08.355Z,66.9
2018-10-04T09:48:07.351Z,66.6
2018-10-04T09:49:06.681Z,66.2
2018-10-04T09:50:05.781Z,66.2
2018-10-04T09:51:05.108Z,66.4
2018-10-04T09:52:04.417Z,66.3
2018-10-04T09:53:03.625Z,66.2
2018-10-04T09:54:03.259Z,66.6
2018-10-04T09:56:01.252Z,67
2018-10-04T09:57:00.467Z,66.3
2018-10-04T09:57:59.792Z,66.1
2018-10-04T09:58:58.893Z,66.3
2018-10-04T09:59:58.324Z,65.7
2018-10-04T10:00:28.988Z,65.7
2018-10-04T10:00:59.512Z,65.7
2018-10-04T10:01:30.148Z,65.7
2018-10-04T10:02:00.677Z,65.6
2018-10-04T10:02:30.916Z,65.6
2018-10-04T10:03:54.791Z,66.1
2018-10-04T10:04:53.999Z,66.7
2018-10-04T10:05:53.316Z,66.5
2018-10-04T10:06:52.535Z,66.1
2018-10-04T10:07:51.654Z,65.8
2018-10-04T10:08:50.867Z,65.7
2018-10-04T10:09:50.295Z,66.1
2018-10-04T10:10:20.943Z,66.1
2018-10-04T10:10:51.568Z,66.2
2018-10-04T10:11:22.195Z,66.2
2018-10-04T10:11:52.980Z,66.4
2018-10-04T10:12:23.038Z,66.4
2018-10-04T10:12:53.692Z,66.2
2018-10-04T10:13:23.935Z,66.2
2018-10-04T10:14:46.409Z,66.3
2018-10-04T10:15:45.847Z,65.9
2018-10-04T10:16:44.667Z,66.3
2018-10-04T10:17:43.991Z,66.1
2018-10-04T10:18:43.003Z,66.6
2018-10-04T10:19:42.429Z,66.1
2018-10-04T10:20:41.856Z,66
2018-10-04T10:21:40.664Z,66.6
2018-10-04T10:22:39.981Z,66.2
2018-10-04T10:23:39.404Z,65.9
2018-10-04T10:24:10.049Z,65.9
2018-10-04T10:24:40.283Z,66.2
2018-10-04T10:25:37.655Z,66
2018-10-04T10:26:37.080Z,66.2
2018-10-04T10:27:36.007Z,65.9
2018-10-04T10:28:35.232Z,65.8
2018-10-04T10:29:34.439Z,66.4
2018-10-04T10:31:33.160Z,66.8
2018-10-04T10:32:32.566Z,65.7
2018-10-04T10:33:31.487Z,65.6
2018-10-04T10:34:30.542Z,65.4
2018-10-04T10:35:29.952Z,65.3
2018-10-04T10:36:29.198Z,65.6
2018-10-04T10:37:28.404Z,65.5
2018-10-04T10:38:27.517Z,65.8
2018-10-04T10:39:26.725Z,65.6
2018-10-04T10:40:26.680Z,65.3
2018-10-04T10:40:56.502Z,65.3
2018-10-04T10:41:26.917Z,65.6
2018-10-04T10:41:57.438Z,65.6
2018-10-04T10:42:28.105Z,65.2
2018-10-04T10:42:58.632Z,65.2
2018-10-04T10:43:29.151Z,65.2
2018-10-04T10:43:59.395Z,65.2
2018-10-04T10:45:22.371Z,65.6
2018-10-04T10:46:21.297Z,65.1
2018-10-04T10:47:20.591Z,65.1
2018-10-04T10:48:19.920Z,65.7
2018-10-04T10:49:19.346Z,65.3
2018-10-04T10:50:18.448Z,65.9
2018-10-04T10:51:17.689Z,65.7
2018-10-04T10:51:48.219Z,65.7
2018-10-04T10:52:18.859Z,65.2
2018-10-04T10:52:49.501Z,65.2
2018-10-04T10:53:20.391Z,65.5
2018-10-04T10:53:50.821Z,65.5
2018-10-04T10:54:21.237Z,65.6
2018-10-04T10:54:51.756Z,65.6
2018-10-04T10:56:13.620Z,65.4
2018-10-04T10:57:12.947Z,65.2
2018-10-04T10:58:12.166Z,65.2
2018-10-04T10:59:11.495Z,65.4
2018-10-04T11:00:10.466Z,65.4
2018-10-04T11:01:09.970Z,65
2018-10-04T11:02:09.023Z,65.2
2018-10-04T11:03:08.468Z,65.2
2018-10-04T11:04:07.386Z,65.3
2018-10-04T11:05:06.611Z,65.1
2018-10-04T11:05:37.351Z,65.1
2018-10-04T11:06:07.805Z,65
2018-10-04T11:07:05.001Z,64.8
2018-10-04T11:08:04.216Z,65.9
2018-10-04T11:09:03.559Z,64.6
2018-10-04T11:10:03.193Z,65.1
2018-10-04T11:11:02.108Z,65.3
2018-10-04T11:12:01.104Z,65
2018-10-04T11:13:00.542Z,65.1
2018-10-04T11:13:59.864Z,64.8
2018-10-04T11:14:59.181Z,65.3
2018-10-04T11:15:58.104Z,65.6
2018-10-04T11:16:57.430Z,65.5
2018-10-04T11:17:57.296Z,65.3
2018-10-04T11:18:55.754Z,65.4
2018-10-04T11:19:54.860Z,65.8
2018-10-04T11:20:54.468Z,65.5
2018-10-04T11:21:53.900Z,65.7
2018-10-04T11:22:52.708Z,65.3
2018-10-04T11:23:52.029Z,65.9
2018-10-04T11:24:22.510Z,65.9
2018-10-04T11:24:52.890Z,65.7
2018-10-04T11:25:23.146Z,65.7
2018-10-04T11:26:49.757Z,65.4
2018-10-04T11:27:49.070Z,65.7
2018-10-04T11:28:48.291Z,65.5
2018-10-04T11:29:47.609Z,65.1
2018-10-04T11:30:46.588Z,64.9
2018-10-04T11:31:46.007Z,65.2
2018-10-04T11:32:45.220Z,65
2018-10-04T11:33:44.430Z,65
2018-10-04T11:34:43.746Z,65.1
2018-10-04T11:35:14.373Z,65.1
2018-10-04T11:36:41.984Z,64.4
2018-10-04T11:37:41.402Z,64.7
2018-10-04T11:38:40.611Z,65
2018-10-04T11:39:39.822Z,65.1
2018-10-04T11:40:39.259Z,64.9
2018-10-04T11:41:38.365Z,64.7
2018-10-04T11:42:37.463Z,64.9
2018-10-04T11:43:36.773Z,65
2018-10-04T11:44:35.875Z,65
2018-10-04T11:45:35.190Z,65.4
2018-10-04T11:46:34.407Z,65.1
2018-10-04T11:47:33.720Z,64.9
2018-10-04T11:48:33.108Z,64.7
2018-10-04T11:49:32.356Z,64.9
2018-10-04T11:50:31.579Z,64.1
2018-10-04T11:51:02.249Z,64.1
2018-10-04T11:51:32.886Z,64.8
2018-10-04T11:52:03.523Z,64.8
2018-10-04T11:52:34.056Z,64.6
2018-10-04T11:53:29.345Z,64.9
2018-10-04T11:54:28.458Z,65.4
2018-10-04T11:55:27.752Z,65
2018-10-04T11:56:27.025Z,65.3
2018-10-04T11:57:26.346Z,65.2
2018-10-04T11:58:25.279Z,64.8
2018-10-04T11:59:24.612Z,65.1
2018-10-04T12:00:23.834Z,64.8
2018-10-04T12:01:23.355Z,64.7